sensor_id;sensor_type;location;lat;lon;timestamp;P1;durP1;ratioP1;P2;durP2;ratioP2
11588;SDS011;5850;51.360;12.362;2022-12-07T00:01:44;10.40;;;7.90;;
11588;SDS011;5850;51.360;12.362;2022-12-07T00:04:15;11.03;;;8.23;;
11588;SDS011;5850;51.360;12.362;2022-12-07T00:06:46;10.67;;;8.50;;
11588;SDS011;5850;51.360;12.362;2022-12-07T00:09:19;11.00;;;8.27;;
11588;SDS011;5850;51.360;12.362;2022-12-07T00:11:49;11.97;;;8.13;;
11588;SDS011;5850;51.360;12.362;2022-12-07T00:14:18;11.90;;;8.50;;
11588;SDS011;5850;51.360;12.362;2022-12-07T00:16:48;11.83;;;8.07;;
11588;SDS011;5850;51.360;12.362;2022-12-07T00:19:19;12.33;;;8.30;;
11588;SDS011;5850;51.360;12.362;2022-12-07T00:21:47;10.50;;;7.70;;
11588;SDS011;5850;51.360;12.362;2022-12-07T00:24:16;11.30;;;8.23;;
11588;SDS011;5850;51.360;12.362;2022-12-07T00:26:45;13.77;;;8.77;;
11588;SDS011;5850;51.360;12.362;2022-12-07T00:29:18;10.53;;;7.53;;
11588;SDS011;5850;51.360;12.362;2022-12-07T00:31:48;11.70;;;8.07;;
11588;SDS011;5850;51.360;12.362;2022-12-07T00:34:18;12.07;;;8.70;;
11588;SDS011;5850;51.360;12.362;2022-12-07T00:36:48;10.43;;;7.90;;
11588;SDS011;5850;51.360;12.362;2022-12-07T00:39:17;10.27;;;7.77;;
11588;SDS011;5850;51.360;12.362;2022-12-07T00:41:46;12.27;;;9.10;;
11588;SDS011;5850;51.360;12.362;2022-12-07T00:44:14;11.90;;;8.07;;
11588;SDS011;5850;51.360;12.362;2022-12-07T00:46:43;11.57;;;7.53;;
11588;SDS011;5850;51.360;12.362;2022-12-07T00:49:12;14.10;;;9.27;;
11588;SDS011;5850;51.360;12.362;2022-12-07T00:51:41;13.40;;;8.87;;
11588;SDS011;5850;51.360;12.362;2022-12-07T00:54:10;11.07;;;8.57;;
11588;SDS011;5850;51.360;12.362;2022-12-07T00:56:39;12.57;;;9.13;;
11588;SDS011;5850;51.360;12.362;2022-12-07T00:59:10;11.87;;;8.90;;
11588;SDS011;5850;51.360;12.362;2022-12-07T01:01:41;10.53;;;8.23;;
11588;SDS011;5850;51.360;12.362;2022-12-07T01:04:09;12.27;;;8.93;;
11588;SDS011;5850;51.360;12.362;2022-12-07T01:06:38;11.60;;;8.57;;
11588;SDS011;5850;51.360;12.362;2022-12-07T01:09:06;12.20;;;8.97;;
11588;SDS011;5850;51.360;12.362;2022-12-07T01:11:35;14.60;;;9.17;;
11588;SDS011;5850;51.360;12.362;2022-12-07T01:14:04;12.83;;;8.73;;
11588;SDS011;5850;51.360;12.362;2022-12-07T01:16:33;13.87;;;9.63;;
11588;SDS011;5850;51.360;12.362;2022-12-07T01:19:01;12.83;;;9.03;;
11588;SDS011;5850;51.360;12.362;2022-12-07T01:21:32;13.50;;;9.43;;
11588;SDS011;5850;51.360;12.362;2022-12-07T01:24:02;12.23;;;9.37;;
11588;SDS011;5850;51.360;12.362;2022-12-07T01:26:33;12.80;;;9.60;;
11588;SDS011;5850;51.360;12.362;2022-12-07T01:29:02;11.90;;;8.77;;
11588;SDS011;5850;51.360;12.362;2022-12-07T01:31:30;13.33;;;9.23;;
11588;SDS011;5850;51.360;12.362;2022-12-07T01:33:59;13.13;;;9.50;;
11588;SDS011;5850;51.360;12.362;2022-12-07T01:36:29;14.33;;;9.10;;
11588;SDS011;5850;51.360;12.362;2022-12-07T01:39:03;13.40;;;9.67;;
11588;SDS011;5850;51.360;12.362;2022-12-07T01:41:35;13.47;;;9.93;;
11588;SDS011;5850;51.360;12.362;2022-12-07T01:46:35;14.63;;;10.33;;
11588;SDS011;5850;51.360;12.362;2022-12-07T01:49:08;13.47;;;9.77;;
11588;SDS011;5850;51.360;12.362;2022-12-07T01:51:53;13.13;;;9.37;;
11588;SDS011;5850;51.360;12.362;2022-12-07T01:54:56;14.03;;;9.60;;
11588;SDS011;5850;51.360;12.362;2022-12-07T01:57:29;14.07;;;10.37;;
11588;SDS011;5850;51.360;12.362;2022-12-07T02:00:01;14.63;;;9.77;;
11588;SDS011;5850;51.360;12.362;2022-12-07T02:02:31;12.50;;;9.43;;
11588;SDS011;5850;51.360;12.362;2022-12-07T02:05:05;12.67;;;9.30;;
11588;SDS011;5850;51.360;12.362;2022-12-07T02:07:35;12.40;;;9.60;;
11588;SDS011;5850;51.360;12.362;2022-12-07T02:10:13;13.30;;;9.63;;
11588;SDS011;5850;51.360;12.362;2022-12-07T02:12:41;12.80;;;9.73;;
11588;SDS011;5850;51.360;12.362;2022-12-07T02:15:12;13.10;;;10.27;;
11588;SDS011;5850;51.360;12.362;2022-12-07T02:23:21;11.40;;;8.83;;
11588;SDS011;5850;51.360;12.362;2022-12-07T02:26:15;11.80;;;8.73;;
11588;SDS011;5850;51.360;12.362;2022-12-07T02:34:50;14.73;;;9.87;;
11588;SDS011;5850;51.360;12.362;2022-12-07T02:37:47;12.77;;;9.27;;
11588;SDS011;5850;51.360;12.362;2022-12-07T02:40:57;14.37;;;9.97;;
11588;SDS011;5850;51.360;12.362;2022-12-07T02:43:35;16.73;;;10.97;;
11588;SDS011;5850;51.360;12.362;2022-12-07T02:46:25;13.00;;;9.47;;
11588;SDS011;5850;51.360;12.362;2022-12-07T02:49:01;12.83;;;9.43;;
11588;SDS011;5850;51.360;12.362;2022-12-07T02:51:31;14.97;;;10.17;;
11588;SDS011;5850;51.360;12.362;2022-12-07T02:54:00;13.77;;;9.23;;
11588;SDS011;5850;51.360;12.362;2022-12-07T03:05:05;12.97;;;8.87;;
11588;SDS011;5850;51.360;12.362;2022-12-07T03:11:13;12.63;;;9.20;;
11588;SDS011;5850;51.360;12.362;2022-12-07T03:14:02;12.57;;;8.93;;
11588;SDS011;5850;51.360;12.362;2022-12-07T03:16:59;13.20;;;8.70;;
11588;SDS011;5850;51.360;12.362;2022-12-07T03:19:38;12.43;;;8.20;;
11588;SDS011;5850;51.360;12.362;2022-12-07T03:22:09;12.10;;;8.77;;
11588;SDS011;5850;51.360;12.362;2022-12-07T03:24:42;13.33;;;8.70;;
11588;SDS011;5850;51.360;12.362;2022-12-07T03:29:51;10.90;;;8.10;;
11588;SDS011;5850;51.360;12.362;2022-12-07T03:35:48;11.33;;;7.40;;
11588;SDS011;5850;51.360;12.362;2022-12-07T03:38:40;10.97;;;8.07;;
11588;SDS011;5850;51.360;12.362;2022-12-07T03:41:19;10.70;;;7.80;;
11588;SDS011;5850;51.360;12.362;2022-12-07T03:43:53;10.77;;;8.33;;
11588;SDS011;5850;51.360;12.362;2022-12-07T03:52:02;11.10;;;7.07;;
11588;SDS011;5850;51.360;12.362;2022-12-07T03:57:34;13.30;;;7.37;;
11588;SDS011;5850;51.360;12.362;2022-12-07T04:00:04;10.67;;;7.53;;
11588;SDS011;5850;51.360;12.362;2022-12-07T04:02:34;10.47;;;7.53;;
11588;SDS011;5850;51.360;12.362;2022-12-07T04:05:05;9.43;;;7.13;;
11588;SDS011;5850;51.360;12.362;2022-12-07T04:07:35;11.57;;;7.27;;
11588;SDS011;5850;51.360;12.362;2022-12-07T04:10:04;11.17;;;8.20;;
11588;SDS011;5850;51.360;12.362;2022-12-07T04:12:33;12.33;;;8.00;;
11588;SDS011;5850;51.360;12.362;2022-12-07T04:15:02;10.77;;;8.03;;
11588;SDS011;5850;51.360;12.362;2022-12-07T04:17:32;10.40;;;7.40;;
11588;SDS011;5850;51.360;12.362;2022-12-07T04:20:00;11.07;;;7.33;;
11588;SDS011;5850;51.360;12.362;2022-12-07T04:22:30;10.43;;;6.97;;
11588;SDS011;5850;51.360;12.362;2022-12-07T04:24:59;10.40;;;7.17;;
11588;SDS011;5850;51.360;12.362;2022-12-07T04:27:28;11.87;;;8.03;;
11588;SDS011;5850;51.360;12.362;2022-12-07T04:29:57;13.07;;;7.10;;
11588;SDS011;5850;51.360;12.362;2022-12-07T04:32:26;10.30;;;7.50;;
11588;SDS011;5850;51.360;12.362;2022-12-07T04:34:55;11.93;;;7.60;;
11588;SDS011;5850;51.360;12.362;2022-12-07T04:37:24;10.30;;;7.30;;
11588;SDS011;5850;51.360;12.362;2022-12-07T04:39:52;9.67;;;6.70;;
11588;SDS011;5850;51.360;12.362;2022-12-07T04:42:21;9.57;;;6.63;;
11588;SDS011;5850;51.360;12.362;2022-12-07T04:44:49;11.83;;;7.23;;
11588;SDS011;5850;51.360;12.362;2022-12-07T04:47:18;9.73;;;6.67;;
11588;SDS011;5850;51.360;12.362;2022-12-07T04:49:46;9.03;;;6.63;;
11588;SDS011;5850;51.360;12.362;2022-12-07T04:52:15;9.23;;;7.07;;
11588;SDS011;5850;51.360;12.362;2022-12-07T04:54:44;12.20;;;7.77;;
11588;SDS011;5850;51.360;12.362;2022-12-07T04:57:12;8.63;;;6.73;;
11588;SDS011;5850;51.360;12.362;2022-12-07T04:59:41;8.53;;;6.40;;
11588;SDS011;5850;51.360;12.362;2022-12-07T05:02:11;12.40;;;6.97;;
11588;SDS011;5850;51.360;12.362;2022-12-07T05:04:39;10.33;;;7.17;;
11588;SDS011;5850;51.360;12.362;2022-12-07T05:07:08;8.37;;;6.67;;
11588;SDS011;5850;51.360;12.362;2022-12-07T05:09:36;8.50;;;6.47;;
11588;SDS011;5850;51.360;12.362;2022-12-07T05:12:05;7.63;;;6.30;;
11588;SDS011;5850;51.360;12.362;2022-12-07T05:14:33;11.00;;;6.73;;
11588;SDS011;5850;51.360;12.362;2022-12-07T05:17:02;8.87;;;6.80;;
11588;SDS011;5850;51.360;12.362;2022-12-07T05:19:31;9.47;;;6.73;;
11588;SDS011;5850;51.360;12.362;2022-12-07T05:21:59;10.30;;;7.07;;
11588;SDS011;5850;51.360;12.362;2022-12-07T05:24:28;8.67;;;6.33;;
11588;SDS011;5850;51.360;12.362;2022-12-07T05:26:56;8.63;;;6.77;;
11588;SDS011;5850;51.360;12.362;2022-12-07T05:29:25;8.83;;;6.80;;
11588;SDS011;5850;51.360;12.362;2022-12-07T05:31:53;9.80;;;7.13;;
11588;SDS011;5850;51.360;12.362;2022-12-07T05:34:22;11.10;;;7.77;;
11588;SDS011;5850;51.360;12.362;2022-12-07T05:36:50;10.00;;;7.47;;
11588;SDS011;5850;51.360;12.362;2022-12-07T05:39:19;9.80;;;7.33;;
11588;SDS011;5850;51.360;12.362;2022-12-07T05:41:47;9.70;;;7.03;;
11588;SDS011;5850;51.360;12.362;2022-12-07T05:44:33;11.03;;;7.93;;
11588;SDS011;5850;51.360;12.362;2022-12-07T05:47:02;9.50;;;7.13;;
11588;SDS011;5850;51.360;12.362;2022-12-07T05:49:30;8.93;;;7.30;;
11588;SDS011;5850;51.360;12.362;2022-12-07T05:51:59;10.23;;;7.63;;
11588;SDS011;5850;51.360;12.362;2022-12-07T05:54:27;8.87;;;7.20;;
11588;SDS011;5850;51.360;12.362;2022-12-07T05:56:56;11.13;;;8.47;;
11588;SDS011;5850;51.360;12.362;2022-12-07T05:59:25;10.20;;;7.50;;
11588;SDS011;5850;51.360;12.362;2022-12-07T06:01:58;10.70;;;7.50;;
11588;SDS011;5850;51.360;12.362;2022-12-07T06:04:29;12.97;;;8.67;;
11588;SDS011;5850;51.360;12.362;2022-12-07T06:07:01;12.80;;;7.93;;
11588;SDS011;5850;51.360;12.362;2022-12-07T06:09:31;9.97;;;8.10;;
11588;SDS011;5850;51.360;12.362;2022-12-07T06:12:00;8.73;;;6.90;;
11588;SDS011;5850;51.360;12.362;2022-12-07T06:14:46;11.70;;;8.33;;
11588;SDS011;5850;51.360;12.362;2022-12-07T06:17:14;13.63;;;8.87;;
11588;SDS011;5850;51.360;12.362;2022-12-07T06:19:43;13.17;;;9.50;;
11588;SDS011;5850;51.360;12.362;2022-12-07T06:22:12;12.13;;;8.80;;
11588;SDS011;5850;51.360;12.362;2022-12-07T06:24:42;11.70;;;8.87;;
11588;SDS011;5850;51.360;12.362;2022-12-07T06:27:11;11.80;;;9.13;;
11588;SDS011;5850;51.360;12.362;2022-12-07T06:29:40;13.73;;;9.27;;
11588;SDS011;5850;51.360;12.362;2022-12-07T06:32:08;12.37;;;8.83;;
11588;SDS011;5850;51.360;12.362;2022-12-07T06:34:38;11.93;;;9.13;;
11588;SDS011;5850;51.360;12.362;2022-12-07T06:37:06;15.50;;;9.23;;
11588;SDS011;5850;51.360;12.362;2022-12-07T06:39:34;13.20;;;8.90;;
11588;SDS011;5850;51.360;12.362;2022-12-07T06:42:03;11.57;;;9.10;;
11588;SDS011;5850;51.360;12.362;2022-12-07T06:44:32;13.27;;;9.90;;
11588;SDS011;5850;51.360;12.362;2022-12-07T06:47:00;12.50;;;9.50;;
11588;SDS011;5850;51.360;12.362;2022-12-07T06:49:50;12.17;;;9.30;;
11588;SDS011;5850;51.360;12.362;2022-12-07T06:52:19;14.30;;;10.33;;
11588;SDS011;5850;51.360;12.362;2022-12-07T06:54:47;13.43;;;10.33;;
11588;SDS011;5850;51.360;12.362;2022-12-07T06:57:16;17.97;;;11.37;;
11588;SDS011;5850;51.360;12.362;2022-12-07T06:59:44;14.07;;;10.20;;
11588;SDS011;5850;51.360;12.362;2022-12-07T07:02:12;13.67;;;10.20;;
11588;SDS011;5850;51.360;12.362;2022-12-07T07:04:41;18.63;;;12.03;;
11588;SDS011;5850;51.360;12.362;2022-12-07T07:07:09;15.70;;;10.53;;
11588;SDS011;5850;51.360;12.362;2022-12-07T07:09:38;15.53;;;11.33;;
11588;SDS011;5850;51.360;12.362;2022-12-07T07:12:07;16.83;;;11.10;;
11588;SDS011;5850;51.360;12.362;2022-12-07T07:14:36;16.47;;;11.23;;
11588;SDS011;5850;51.360;12.362;2022-12-07T07:17:04;15.73;;;10.30;;
11588;SDS011;5850;51.360;12.362;2022-12-07T07:19:33;15.33;;;10.43;;
11588;SDS011;5850;51.360;12.362;2022-12-07T07:22:02;14.87;;;11.60;;
11588;SDS011;5850;51.360;12.362;2022-12-07T07:24:31;16.90;;;10.73;;
11588;SDS011;5850;51.360;12.362;2022-12-07T07:27:00;16.87;;;11.47;;
11588;SDS011;5850;51.360;12.362;2022-12-07T07:29:28;16.97;;;11.97;;
11588;SDS011;5850;51.360;12.362;2022-12-07T07:31:57;13.50;;;9.90;;
11588;SDS011;5850;51.360;12.362;2022-12-07T07:34:31;15.17;;;11.20;;
11588;SDS011;5850;51.360;12.362;2022-12-07T07:37:03;15.43;;;12.00;;
11588;SDS011;5850;51.360;12.362;2022-12-07T07:39:32;14.00;;;10.40;;
11588;SDS011;5850;51.360;12.362;2022-12-07T07:42:00;17.53;;;11.13;;
11588;SDS011;5850;51.360;12.362;2022-12-07T07:44:29;14.33;;;10.70;;
11588;SDS011;5850;51.360;12.362;2022-12-07T07:47:00;12.83;;;9.93;;
11588;SDS011;5850;51.360;12.362;2022-12-07T07:49:29;15.53;;;11.40;;
11588;SDS011;5850;51.360;12.362;2022-12-07T07:51:58;16.07;;;11.73;;
11588;SDS011;5850;51.360;12.362;2022-12-07T07:54:27;13.63;;;10.53;;
11588;SDS011;5850;51.360;12.362;2022-12-07T07:56:55;16.13;;;11.23;;
11588;SDS011;5850;51.360;12.362;2022-12-07T07:59:24;16.17;;;11.50;;
11588;SDS011;5850;51.360;12.362;2022-12-07T08:01:52;17.57;;;12.00;;
11588;SDS011;5850;51.360;12.362;2022-12-07T08:04:21;14.40;;;10.70;;
11588;SDS011;5850;51.360;12.362;2022-12-07T08:06:50;16.63;;;11.07;;
11588;SDS011;5850;51.360;12.362;2022-12-07T08:09:18;16.43;;;11.73;;
11588;SDS011;5850;51.360;12.362;2022-12-07T08:11:46;13.20;;;10.30;;
11588;SDS011;5850;51.360;12.362;2022-12-07T08:14:15;18.53;;;12.90;;
11588;SDS011;5850;51.360;12.362;2022-12-07T08:16:43;16.50;;;12.17;;
11588;SDS011;5850;51.360;12.362;2022-12-07T08:19:12;17.00;;;11.87;;
11588;SDS011;5850;51.360;12.362;2022-12-07T08:21:40;18.57;;;12.83;;
11588;SDS011;5850;51.360;12.362;2022-12-07T08:24:09;16.47;;;11.37;;
11588;SDS011;5850;51.360;12.362;2022-12-07T08:26:37;18.10;;;13.00;;
11588;SDS011;5850;51.360;12.362;2022-12-07T08:29:06;16.50;;;12.50;;
11588;SDS011;5850;51.360;12.362;2022-12-07T08:31:35;16.80;;;11.97;;
11588;SDS011;5850;51.360;12.362;2022-12-07T08:34:03;18.13;;;12.13;;
11588;SDS011;5850;51.360;12.362;2022-12-07T08:36:32;16.43;;;12.03;;
11588;SDS011;5850;51.360;12.362;2022-12-07T08:39:00;14.80;;;11.20;;
11588;SDS011;5850;51.360;12.362;2022-12-07T08:41:49;14.93;;;11.03;;
11588;SDS011;5850;51.360;12.362;2022-12-07T08:44:17;17.77;;;11.03;;
11588;SDS011;5850;51.360;12.362;2022-12-07T08:46:46;15.57;;;11.30;;
11588;SDS011;5850;51.360;12.362;2022-12-07T08:49:27;16.23;;;10.43;;
11588;SDS011;5850;51.360;12.362;2022-12-07T08:52:02;16.80;;;11.07;;
11588;SDS011;5850;51.360;12.362;2022-12-07T08:54:33;16.20;;;9.67;;
11588;SDS011;5850;51.360;12.362;2022-12-07T08:57:04;18.23;;;9.83;;
11588;SDS011;5850;51.360;12.362;2022-12-07T08:59:33;15.27;;;9.90;;
11588;SDS011;5850;51.360;12.362;2022-12-07T09:02:04;12.87;;;9.17;;
11588;SDS011;5850;51.360;12.362;2022-12-07T09:04:33;16.40;;;9.30;;
11588;SDS011;5850;51.360;12.362;2022-12-07T09:07:02;14.10;;;8.57;;
11588;SDS011;5850;51.360;12.362;2022-12-07T09:09:31;13.57;;;8.57;;
11588;SDS011;5850;51.360;12.362;2022-12-07T09:12:00;13.33;;;8.50;;
11588;SDS011;5850;51.360;12.362;2022-12-07T09:14:28;10.73;;;7.50;;
11588;SDS011;5850;51.360;12.362;2022-12-07T09:17:15;10.73;;;8.07;;
11588;SDS011;5850;51.360;12.362;2022-12-07T09:19:43;15.43;;;7.40;;
11588;SDS011;5850;51.360;12.362;2022-12-07T09:22:12;10.17;;;6.93;;
11588;SDS011;5850;51.360;12.362;2022-12-07T09:24:40;10.13;;;6.97;;
11588;SDS011;5850;51.360;12.362;2022-12-07T09:27:09;9.70;;;6.83;;
11588;SDS011;5850;51.360;12.362;2022-12-07T09:29:38;10.30;;;7.13;;
11588;SDS011;5850;51.360;12.362;2022-12-07T09:32:06;10.63;;;7.23;;
11588;SDS011;5850;51.360;12.362;2022-12-07T09:34:37;12.47;;;8.20;;
11588;SDS011;5850;51.360;12.362;2022-12-07T09:37:06;10.33;;;7.77;;
11588;SDS011;5850;51.360;12.362;2022-12-07T09:39:34;10.87;;;6.97;;
11588;SDS011;5850;51.360;12.362;2022-12-07T09:42:26;9.27;;;6.80;;
11588;SDS011;5850;51.360;12.362;2022-12-07T09:45:15;10.43;;;7.87;;
11588;SDS011;5850;51.360;12.362;2022-12-07T09:47:49;11.40;;;7.30;;
11588;SDS011;5850;51.360;12.362;2022-12-07T09:50:22;11.20;;;7.90;;
11588;SDS011;5850;51.360;12.362;2022-12-07T09:52:53;13.50;;;7.13;;
11588;SDS011;5850;51.360;12.362;2022-12-07T09:55:36;10.70;;;7.70;;
11588;SDS011;5850;51.360;12.362;2022-12-07T09:58:05;14.10;;;7.80;;
11588;SDS011;5850;51.360;12.362;2022-12-07T10:00:33;11.93;;;7.67;;
11588;SDS011;5850;51.360;12.362;2022-12-07T10:03:02;10.23;;;7.90;;
11588;SDS011;5850;51.360;12.362;2022-12-07T10:05:32;11.87;;;7.70;;
11588;SDS011;5850;51.360;12.362;2022-12-07T10:08:13;12.03;;;7.83;;
11588;SDS011;5850;51.360;12.362;2022-12-07T10:10:44;10.07;;;7.50;;
11588;SDS011;5850;51.360;12.362;2022-12-07T10:13:20;8.73;;;7.00;;
11588;SDS011;5850;51.360;12.362;2022-12-07T10:16:03;14.63;;;7.90;;
11588;SDS011;5850;51.360;12.362;2022-12-07T10:21:23;12.93;;;7.90;;
11588;SDS011;5850;51.360;12.362;2022-12-07T10:26:50;12.50;;;7.10;;
11588;SDS011;5850;51.360;12.362;2022-12-07T10:29:21;9.27;;;7.13;;
11588;SDS011;5850;51.360;12.362;2022-12-07T10:32:01;13.50;;;6.53;;
11588;SDS011;5850;51.360;12.362;2022-12-07T10:34:44;11.57;;;6.70;;
11588;SDS011;5850;51.360;12.362;2022-12-07T10:37:18;10.20;;;7.00;;
11588;SDS011;5850;51.360;12.362;2022-12-07T10:39:52;10.73;;;6.80;;
11588;SDS011;5850;51.360;12.362;2022-12-07T10:42:27;10.07;;;6.03;;
11588;SDS011;5850;51.360;12.362;2022-12-07T10:47:48;12.03;;;7.17;;
11588;SDS011;5850;51.360;12.362;2022-12-07T11:04:53;9.43;;;5.37;;
11588;SDS011;5850;51.360;12.362;2022-12-07T11:07:54;7.87;;;5.23;;
11588;SDS011;5850;51.360;12.362;2022-12-07T11:11:09;9.67;;;5.73;;
11588;SDS011;5850;51.360;12.362;2022-12-07T11:13:50;8.20;;;4.93;;
11588;SDS011;5850;51.360;12.362;2022-12-07T11:19:34;4.30;;;3.57;;
11588;SDS011;5850;51.360;12.362;2022-12-07T11:33:40;7.57;;;6.40;;
11588;SDS011;5850;51.360;12.362;2022-12-07T11:39:12;8.63;;;4.73;;
11588;SDS011;5850;51.360;12.362;2022-12-07T11:41:52;7.40;;;5.00;;
11588;SDS011;5850;51.360;12.362;2022-12-07T11:50:45;6.77;;;5.53;;
11588;SDS011;5850;51.360;12.362;2022-12-07T11:53:22;8.97;;;5.97;;
11588;SDS011;5850;51.360;12.362;2022-12-07T11:56:12;7.90;;;5.20;;
11588;SDS011;5850;51.360;12.362;2022-12-07T12:02:16;9.30;;;5.77;;
11588;SDS011;5850;51.360;12.362;2022-12-07T12:05:13;7.90;;;5.67;;
11588;SDS011;5850;51.360;12.362;2022-12-07T12:07:55;7.33;;;5.33;;
11588;SDS011;5850;51.360;12.362;2022-12-07T12:14:17;9.83;;;5.57;;
11588;SDS011;5850;51.360;12.362;2022-12-07T12:25:40;5.80;;;4.40;;
11588;SDS011;5850;51.360;12.362;2022-12-07T12:28:56;8.43;;;4.67;;
11588;SDS011;5850;51.360;12.362;2022-12-07T12:33:52;5.80;;;4.27;;
11588;SDS011;5850;51.360;12.362;2022-12-07T12:46:58;6.20;;;3.63;;
11588;SDS011;5850;51.360;12.362;2022-12-07T12:54:27;4.83;;;2.90;;
11588;SDS011;5850;51.360;12.362;2022-12-07T13:02:30;3.57;;;3.03;;
11588;SDS011;5850;51.360;12.362;2022-12-07T13:05:16;3.50;;;2.63;;
11588;SDS011;5850;51.360;12.362;2022-12-07T13:07:54;4.30;;;2.47;;
11588;SDS011;5850;51.360;12.362;2022-12-07T13:29:18;4.13;;;2.70;;
11588;SDS011;5850;51.360;12.362;2022-12-07T13:31:55;4.90;;;2.17;;
11588;SDS011;5850;51.360;12.362;2022-12-07T13:34:40;3.60;;;2.00;;
11588;SDS011;5850;51.360;12.362;2022-12-07T13:37:25;2.50;;;1.80;;
11588;SDS011;5850;51.360;12.362;2022-12-07T13:40:37;4.23;;;2.17;;
11588;SDS011;5850;51.360;12.362;2022-12-07T13:42:58;4.13;;;1.67;;
11588;SDS011;5850;51.360;12.362;2022-12-07T13:45:30;5.57;;;2.07;;
11588;SDS011;5850;51.360;12.362;2022-12-07T13:48:42;4.87;;;1.70;;
11588;SDS011;5850;51.360;12.362;2022-12-07T13:51:22;3.43;;;1.97;;
11588;SDS011;5850;51.360;12.362;2022-12-07T13:53:59;3.43;;;2.00;;
11588;SDS011;5850;51.360;12.362;2022-12-07T13:56:34;2.33;;;2.10;;
11588;SDS011;5850;51.360;12.362;2022-12-07T13:59:10;4.87;;;1.87;;
11588;SDS011;5850;51.360;12.362;2022-12-07T14:01:47;3.43;;;2.03;;
11588;SDS011;5850;51.360;12.362;2022-12-07T14:04:30;3.83;;;2.10;;
11588;SDS011;5850;51.360;12.362;2022-12-07T14:10:00;2.40;;;1.80;;
11588;SDS011;5850;51.360;12.362;2022-12-07T14:12:32;2.50;;;1.77;;
11588;SDS011;5850;51.360;12.362;2022-12-07T14:15:03;3.50;;;2.30;;
11588;SDS011;5850;51.360;12.362;2022-12-07T14:17:34;5.57;;;1.70;;
11588;SDS011;5850;51.360;12.362;2022-12-07T14:20:02;2.37;;;2.13;;
11588;SDS011;5850;51.360;12.362;2022-12-07T14:22:55;3.07;;;2.43;;
11588;SDS011;5850;51.360;12.362;2022-12-07T14:25:24;2.37;;;1.63;;
11588;SDS011;5850;51.360;12.362;2022-12-07T14:27:58;2.23;;;2.00;;
11588;SDS011;5850;51.360;12.362;2022-12-07T14:30:29;3.17;;;1.80;;
11588;SDS011;5850;51.360;12.362;2022-12-07T14:33:00;2.50;;;2.23;;
11588;SDS011;5850;51.360;12.362;2022-12-07T14:35:33;3.03;;;1.83;;
11588;SDS011;5850;51.360;12.362;2022-12-07T14:38:02;2.00;;;1.63;;
11588;SDS011;5850;51.360;12.362;2022-12-07T14:40:30;2.43;;;1.87;;
11588;SDS011;5850;51.360;12.362;2022-12-07T14:43:08;3.57;;;1.80;;
11588;SDS011;5850;51.360;12.362;2022-12-07T14:45:39;3.10;;;2.10;;
11588;SDS011;5850;51.360;12.362;2022-12-07T14:48:12;3.03;;;2.03;;
11588;SDS011;5850;51.360;12.362;2022-12-07T14:51:02;2.23;;;1.70;;
11588;SDS011;5850;51.360;12.362;2022-12-07T14:53:52;3.97;;;2.67;;
11588;SDS011;5850;51.360;12.362;2022-12-07T14:56:23;3.10;;;2.00;;
11588;SDS011;5850;51.360;12.362;2022-12-07T14:58:53;3.80;;;2.00;;
11588;SDS011;5850;51.360;12.362;2022-12-07T15:01:22;2.17;;;1.97;;
11588;SDS011;5850;51.360;12.362;2022-12-07T15:03:51;2.27;;;1.80;;
11588;SDS011;5850;51.360;12.362;2022-12-07T15:06:19;26.73;;;13.93;;
11588;SDS011;5850;51.360;12.362;2022-12-07T15:08:48;6.03;;;2.60;;
11588;SDS011;5850;51.360;12.362;2022-12-07T15:11:17;3.67;;;2.27;;
11588;SDS011;5850;51.360;12.362;2022-12-07T15:13:46;4.73;;;2.50;;
11588;SDS011;5850;51.360;12.362;2022-12-07T15:16:31;3.00;;;2.03;;
11588;SDS011;5850;51.360;12.362;2022-12-07T15:19:21;5.47;;;2.50;;
11588;SDS011;5850;51.360;12.362;2022-12-07T15:21:55;2.60;;;2.27;;
11588;SDS011;5850;51.360;12.362;2022-12-07T15:24:24;5.73;;;2.20;;
11588;SDS011;5850;51.360;12.362;2022-12-07T15:26:53;5.03;;;1.93;;
11588;SDS011;5850;51.360;12.362;2022-12-07T15:29:22;3.73;;;2.13;;
11588;SDS011;5850;51.360;12.362;2022-12-07T15:31:50;4.33;;;2.03;;
11588;SDS011;5850;51.360;12.362;2022-12-07T15:34:26;3.60;;;1.90;;
11588;SDS011;5850;51.360;12.362;2022-12-07T15:37:05;4.27;;;2.30;;
11588;SDS011;5850;51.360;12.362;2022-12-07T15:39:34;5.63;;;2.50;;
11588;SDS011;5850;51.360;12.362;2022-12-07T15:42:03;5.33;;;2.30;;
11588;SDS011;5850;51.360;12.362;2022-12-07T15:44:32;3.63;;;2.20;;
11588;SDS011;5850;51.360;12.362;2022-12-07T15:47:18;5.80;;;1.90;;
11588;SDS011;5850;51.360;12.362;2022-12-07T15:49:47;4.60;;;2.63;;
11588;SDS011;5850;51.360;12.362;2022-12-07T15:52:15;3.27;;;2.13;;
11588;SDS011;5850;51.360;12.362;2022-12-07T15:54:45;4.90;;;2.80;;
11588;SDS011;5850;51.360;12.362;2022-12-07T15:57:14;4.30;;;2.13;;
11588;SDS011;5850;51.360;12.362;2022-12-07T15:59:50;4.60;;;1.90;;
11588;SDS011;5850;51.360;12.362;2022-12-07T16:02:18;6.13;;;2.40;;
11588;SDS011;5850;51.360;12.362;2022-12-07T16:04:46;6.07;;;2.10;;
11588;SDS011;5850;51.360;12.362;2022-12-07T16:07:16;3.07;;;1.83;;
11588;SDS011;5850;51.360;12.362;2022-12-07T16:09:45;3.53;;;2.40;;
11588;SDS011;5850;51.360;12.362;2022-12-07T16:12:15;2.13;;;1.80;;
11588;SDS011;5850;51.360;12.362;2022-12-07T16:14:44;2.63;;;2.20;;
11588;SDS011;5850;51.360;12.362;2022-12-07T16:17:13;3.87;;;2.20;;
11588;SDS011;5850;51.360;12.362;2022-12-07T16:19:41;2.03;;;1.83;;
11588;SDS011;5850;51.360;12.362;2022-12-07T16:22:10;6.13;;;3.40;;
11588;SDS011;5850;51.360;12.362;2022-12-07T16:24:39;3.63;;;2.83;;
11588;SDS011;5850;51.360;12.362;2022-12-07T16:27:07;5.70;;;2.97;;
11588;SDS011;5850;51.360;12.362;2022-12-07T16:29:36;4.83;;;2.57;;
11588;SDS011;5850;51.360;12.362;2022-12-07T16:32:04;3.87;;;2.73;;
11588;SDS011;5850;51.360;12.362;2022-12-07T16:34:33;4.00;;;2.80;;
11588;SDS011;5850;51.360;12.362;2022-12-07T16:37:01;3.93;;;2.80;;
11588;SDS011;5850;51.360;12.362;2022-12-07T16:39:31;5.20;;;2.97;;
11588;SDS011;5850;51.360;12.362;2022-12-07T16:42:01;5.03;;;2.73;;
11588;SDS011;5850;51.360;12.362;2022-12-07T16:44:29;4.63;;;3.00;;
11588;SDS011;5850;51.360;12.362;2022-12-07T16:46:58;3.53;;;3.03;;
11588;SDS011;5850;51.360;12.362;2022-12-07T16:49:27;3.77;;;2.67;;
11588;SDS011;5850;51.360;12.362;2022-12-07T16:51:56;8.73;;;3.40;;
11588;SDS011;5850;51.360;12.362;2022-12-07T16:54:45;5.93;;;3.03;;
11588;SDS011;5850;51.360;12.362;2022-12-07T16:57:16;3.33;;;2.83;;
11588;SDS011;5850;51.360;12.362;2022-12-07T16:59:49;5.73;;;3.70;;
11588;SDS011;5850;51.360;12.362;2022-12-07T17:02:18;5.63;;;3.13;;
11588;SDS011;5850;51.360;12.362;2022-12-07T17:04:47;7.63;;;4.23;;
11588;SDS011;5850;51.360;12.362;2022-12-07T17:07:15;6.40;;;4.70;;
11588;SDS011;5850;51.360;12.362;2022-12-07T17:09:44;8.87;;;5.30;;
11588;SDS011;5850;51.360;12.362;2022-12-07T17:12:12;9.90;;;5.27;;
11588;SDS011;5850;51.360;12.362;2022-12-07T17:14:41;12.77;;;7.73;;
11588;SDS011;5850;51.360;12.362;2022-12-07T17:17:27;14.73;;;8.03;;
11588;SDS011;5850;51.360;12.362;2022-12-07T17:19:56;11.90;;;6.53;;
11588;SDS011;5850;51.360;12.362;2022-12-07T17:22:24;7.90;;;4.50;;
11588;SDS011;5850;51.360;12.362;2022-12-07T17:24:53;8.07;;;4.60;;
11588;SDS011;5850;51.360;12.362;2022-12-07T17:27:21;5.30;;;3.77;;
11588;SDS011;5850;51.360;12.362;2022-12-07T17:29:50;5.37;;;3.23;;
11588;SDS011;5850;51.360;12.362;2022-12-07T17:32:18;4.97;;;3.20;;
11588;SDS011;5850;51.360;12.362;2022-12-07T17:34:47;8.00;;;3.10;;
11588;SDS011;5850;51.360;12.362;2022-12-07T17:37:16;4.30;;;3.30;;
11588;SDS011;5850;51.360;12.362;2022-12-07T17:39:44;5.87;;;3.03;;